createdAt,value
2023-01-18T00:00:46.378Z,100.00
2023-01-18T00:03:13.600Z,100.00
2023-01-18T00:05:41.657Z,100.00
2023-01-18T00:08:13.466Z,100.00
2023-01-18T00:10:40.324Z,100.00
2023-01-18T00:13:07.184Z,100.00
2023-01-18T00:15:37.097Z,100.00
2023-01-18T00:18:04.030Z,100.00
2023-01-18T00:20:31.387Z,100.00
2023-01-18T00:23:00.901Z,100.00
2023-01-18T00:25:29.061Z,100.00
2023-01-18T00:27:56.119Z,100.00
2023-01-18T00:30:25.318Z,100.00
2023-01-18T00:32:57.446Z,100.00
2023-01-18T00:35:24.482Z,100.00
2023-01-18T00:37:52.170Z,100.00
2023-01-18T00:40:20.585Z,100.00
2023-01-18T00:43:05.954Z,100.00
2023-01-18T00:45:32.707Z,100.00
2023-01-18T00:47:59.313Z,100.00
2023-01-18T00:50:25.928Z,100.00
2023-01-18T00:52:56.916Z,100.00
2023-01-18T00:55:23.917Z,100.00
2023-01-18T00:57:50.812Z,100.00
2023-01-18T01:00:24.184Z,100.00
2023-01-18T01:02:51.785Z,100.00
2023-01-18T01:05:40.721Z,100.00
2023-01-18T01:08:07.660Z,100.00
2023-01-18T01:10:35.125Z,100.00
2023-01-18T01:13:20.770Z,100.00
2023-01-18T01:16:05.634Z,100.00
2023-01-18T01:18:51.133Z,100.00
2023-01-18T01:21:36.318Z,100.00
2023-01-18T01:24:21.664Z,100.00
2023-01-18T01:26:48.351Z,100.00
2023-01-18T01:29:15.997Z,100.00
2023-01-18T01:31:42.701Z,100.00
2023-01-18T01:34:09.861Z,100.00
2023-01-18T01:36:36.415Z,100.00
2023-01-18T01:39:03.040Z,100.00
2023-01-18T01:41:32.664Z,100.00
2023-01-18T01:44:04.448Z,100.00
2023-01-18T01:46:46.678Z,100.00
2023-01-18T01:49:21.299Z,100.00
2023-01-18T01:51:56.320Z,100.00
2023-01-18T01:54:29.376Z,100.00
2023-01-18T01:57:01.364Z,100.00
2023-01-18T01:59:28.059Z,100.00
2023-01-18T02:01:54.704Z,100.00
2023-01-18T02:04:21.301Z,100.00
2023-01-18T02:06:47.832Z,100.00
2023-01-18T02:09:16.202Z,100.00
2023-01-18T02:11:43.871Z,100.00
2023-01-18T02:14:16.469Z,100.00
2023-01-18T02:17:01.785Z,100.00
2023-01-18T02:19:50.653Z,100.00
2023-01-18T02:22:38.994Z,100.00
2023-01-18T02:25:17.420Z,100.00
2023-01-18T02:27:54.304Z,100.00
2023-01-18T02:30:30.601Z,100.00
2023-01-18T02:33:06.546Z,100.00
2023-01-18T02:35:32.948Z,100.00
2023-01-18T02:38:06.024Z,100.00
2023-01-18T02:40:45.427Z,100.00
2023-01-18T02:43:35.184Z,100.00
2023-01-18T02:46:21.392Z,100.00
2023-01-18T02:48:50.082Z,100.00
2023-01-18T02:51:16.547Z,100.00
2023-01-18T02:53:45.499Z,100.00
2023-01-18T02:56:16.960Z,100.00
2023-01-18T02:59:05.111Z,100.00
2023-01-18T03:01:55.122Z,100.00
2023-01-18T03:04:31.233Z,100.00
2023-01-18T03:07:03.757Z,100.00
2023-01-18T03:09:31.209Z,100.00
2023-01-18T03:12:06.077Z,100.00
2023-01-18T03:14:54.078Z,100.00
2023-01-18T03:17:36.226Z,100.00
2023-01-18T03:20:11.175Z,100.00
2023-01-18T03:23:04.295Z,100.00
2023-01-18T03:25:34.808Z,100.00
2023-01-18T03:28:26.861Z,100.00
2023-01-18T03:31:17.009Z,100.00
2023-01-18T03:33:49.837Z,100.00
2023-01-18T03:36:18.381Z,100.00
2023-01-18T03:38:48.034Z,100.00
2023-01-18T03:41:19.927Z,100.00
2023-01-18T03:43:50.361Z,100.00
2023-01-18T03:46:19.839Z,100.00
2023-01-18T03:48:46.416Z,100.00
2023-01-18T03:51:29.891Z,100.00
2023-01-18T03:54:15.352Z,100.00
2023-01-18T03:56:53.079Z,100.00
2023-01-18T03:59:19.607Z,100.00
2023-01-18T04:01:48.282Z,100.00
2023-01-18T04:04:15.217Z,100.00
2023-01-18T04:06:42.421Z,100.00
2023-01-18T04:09:08.991Z,100.00
2023-01-18T04:11:35.481Z,100.00
2023-01-18T04:14:01.893Z,100.00
2023-01-18T04:16:28.442Z,100.00
2023-01-18T04:18:55.060Z,100.00
2023-01-18T04:21:21.722Z,100.00
2023-01-18T04:23:48.155Z,100.00
2023-01-18T04:26:16.661Z,100.00
2023-01-18T04:28:43.459Z,100.00
2023-01-18T04:31:10.092Z,100.00
2023-01-18T04:33:36.915Z,100.00
2023-01-18T04:36:04.160Z,100.00
2023-01-18T04:38:30.721Z,100.00
2023-01-18T04:41:03.205Z,100.00
2023-01-18T04:43:29.934Z,100.00
2023-01-18T04:45:56.850Z,100.00
2023-01-18T04:48:24.373Z,100.00
2023-01-18T04:50:51.570Z,100.00
2023-01-18T04:53:18.588Z,100.00
2023-01-18T04:55:45.479Z,100.00
2023-01-18T04:58:12.014Z,100.00
2023-01-18T05:00:39.943Z,100.00
2023-01-18T05:03:11.289Z,100.00
2023-01-18T05:05:38.014Z,100.00
2023-01-18T05:08:04.635Z,100.00
2023-01-18T05:10:33.534Z,100.00
2023-01-18T05:13:00.530Z,100.00
2023-01-18T05:15:27.737Z,100.00
2023-01-18T05:17:54.289Z,100.00
2023-01-18T05:20:20.895Z,100.00
2023-01-18T05:22:47.564Z,100.00
2023-01-18T05:25:14.189Z,100.00
2023-01-18T05:27:40.849Z,100.00
2023-01-18T05:30:09.660Z,100.00
2023-01-18T05:32:36.398Z,100.00
2023-01-18T05:35:04.970Z,100.00
2023-01-18T05:37:31.664Z,100.00
2023-01-18T05:39:58.194Z,100.00
2023-01-18T05:42:24.689Z,100.00
2023-01-18T05:44:51.196Z,100.00
2023-01-18T05:47:20.532Z,100.00
2023-01-18T05:49:47.113Z,100.00
2023-01-18T05:52:13.733Z,100.00
2023-01-18T05:54:40.273Z,100.00
2023-01-18T05:57:06.866Z,100.00
2023-01-18T05:59:33.422Z,100.00
2023-01-18T06:01:59.955Z,100.00
2023-01-18T06:04:26.599Z,100.00
2023-01-18T06:06:53.393Z,100.00
2023-01-18T06:09:19.876Z,100.00
2023-01-18T06:11:46.363Z,100.00
2023-01-18T06:14:13.076Z,100.00
2023-01-18T06:16:39.608Z,100.00
2023-01-18T06:19:06.275Z,100.00
2023-01-18T06:21:32.869Z,100.00
2023-01-18T06:23:59.472Z,100.00
2023-01-18T06:26:26.028Z,100.00
2023-01-18T06:28:53.569Z,100.00
2023-01-18T06:31:20.222Z,100.00
2023-01-18T06:33:46.735Z,100.00
2023-01-18T06:36:13.384Z,100.00
2023-01-18T06:38:41.339Z,100.00
2023-01-18T06:41:09.120Z,100.00
2023-01-18T06:43:35.619Z,100.00
2023-01-18T06:46:02.956Z,100.00
2023-01-18T06:48:29.929Z,100.00
2023-01-18T06:50:57.385Z,100.00
2023-01-18T06:53:24.584Z,100.00
2023-01-18T06:55:54.857Z,100.00
2023-01-18T06:58:21.438Z,100.00
2023-01-18T07:00:48.122Z,100.00
2023-01-18T07:03:14.687Z,100.00
2023-01-18T07:05:41.169Z,100.00
2023-01-18T07:08:07.698Z,100.00
2023-01-18T07:10:34.259Z,100.00
2023-01-18T07:13:01.170Z,100.00
2023-01-18T07:15:27.730Z,100.00
2023-01-18T07:17:54.389Z,100.00
2023-01-18T07:20:20.913Z,100.00
2023-01-18T07:22:52.585Z,100.00
2023-01-18T07:25:20.796Z,100.00
2023-01-18T07:27:48.900Z,100.00
2023-01-18T07:30:16.302Z,100.00
2023-01-18T07:32:50.936Z,100.00
2023-01-18T07:35:20.025Z,100.00
2023-01-18T07:37:55.316Z,100.00
2023-01-18T07:40:22.201Z,100.00
2023-01-18T07:42:49.140Z,100.00
2023-01-18T07:45:15.836Z,100.00
2023-01-18T07:47:42.723Z,100.00
2023-01-18T07:50:10.240Z,100.00
2023-01-18T07:52:36.708Z,100.00
2023-01-18T07:55:05.213Z,100.00
2023-01-18T07:57:33.033Z,100.00
2023-01-18T07:59:59.598Z,100.00
2023-01-18T08:02:26.141Z,100.00
2023-01-18T08:04:52.664Z,100.00
2023-01-18T08:07:19.924Z,100.00
2023-01-18T08:09:46.428Z,100.00
2023-01-18T08:12:17.913Z,100.00
2023-01-18T08:14:45.971Z,100.00
2023-01-18T08:17:12.733Z,100.00
2023-01-18T08:19:39.426Z,100.00
2023-01-18T08:22:07.774Z,100.00
2023-01-18T08:24:34.230Z,100.00
2023-01-18T08:27:00.806Z,100.00
2023-01-18T08:29:27.246Z,100.00
2023-01-18T08:31:54.239Z,100.00
2023-01-18T08:34:21.874Z,100.00
2023-01-18T08:36:48.360Z,100.00
2023-01-18T08:39:15.070Z,100.00
2023-01-18T08:41:41.934Z,100.00
2023-01-18T08:44:08.429Z,100.00
2023-01-18T08:46:36.400Z,100.00
2023-01-18T08:49:05.628Z,100.00
2023-01-18T08:51:32.591Z,100.00
2023-01-18T08:53:59.855Z,100.00
2023-01-18T08:56:26.672Z,100.00
2023-01-18T08:58:53.418Z,100.00
2023-01-18T09:01:22.984Z,100.00
2023-01-18T09:03:50.621Z,100.00
2023-01-18T09:06:17.412Z,100.00
2023-01-18T09:08:47.489Z,100.00
2023-01-18T09:11:15.117Z,100.00
2023-01-18T09:13:58.572Z,100.00
2023-01-18T09:16:26.240Z,100.00
2023-01-18T09:18:55.221Z,100.00
2023-01-18T09:21:22.350Z,100.00
2023-01-18T09:23:50.773Z,100.00
2023-01-18T09:26:18.341Z,100.00
2023-01-18T09:28:47.746Z,100.00
2023-01-18T09:31:14.611Z,100.00
2023-01-18T09:33:48.305Z,100.00
2023-01-18T09:36:21.441Z,100.00
2023-01-18T09:38:48.108Z,100.00
2023-01-18T09:41:42.782Z,100.00
2023-01-18T09:44:21.550Z,100.00
2023-01-18T09:46:54.496Z,100.00
2023-01-18T09:49:32.675Z,100.00
2023-01-18T09:52:20.036Z,100.00
2023-01-18T09:55:01.024Z,100.00
2023-01-18T09:58:05.779Z,100.00
2023-01-18T10:00:37.123Z,100.00
2023-01-18T10:03:28.726Z,100.00
2023-01-18T10:06:08.932Z,100.00
2023-01-18T10:09:06.979Z,100.00
2023-01-18T10:11:50.499Z,100.00
2023-01-18T10:14:29.056Z,100.00
2023-01-18T10:17:02.494Z,100.00
2023-01-18T10:19:31.382Z,100.00
2023-01-18T10:22:20.877Z,100.00
2023-01-18T10:25:13.045Z,100.00
2023-01-18T10:28:12.837Z,100.00
2023-01-18T10:31:06.049Z,100.00
2023-01-18T10:33:40.899Z,100.00
2023-01-18T10:36:13.575Z,100.00
2023-01-18T10:38:41.195Z,100.00
2023-01-18T10:41:19.331Z,100.00
2023-01-18T10:43:46.855Z,99.84
2023-01-18T10:46:16.963Z,99.85
2023-01-18T10:48:47.279Z,100.00
2023-01-18T10:51:32.146Z,100.00
2023-01-18T10:53:58.730Z,100.00
2023-01-18T10:56:28.303Z,100.00
2023-01-18T10:58:58.393Z,100.00
2023-01-18T11:01:32.009Z,100.00
2023-01-18T11:04:05.938Z,100.00
2023-01-18T11:06:48.038Z,100.00
2023-01-18T11:09:59.276Z,100.00
2023-01-18T11:12:38.869Z,100.00
2023-01-18T11:15:27.733Z,100.00
2023-01-18T11:17:57.955Z,100.00
2023-01-18T11:20:39.183Z,100.00
2023-01-18T11:23:14.837Z,99.87
2023-01-18T11:25:53.413Z,98.99
2023-01-18T11:28:34.059Z,98.69
2023-01-18T11:31:10.221Z,98.22
2023-01-18T11:33:47.891Z,98.65
2023-01-18T11:36:14.530Z,98.33
2023-01-18T11:38:41.578Z,98.17
2023-01-18T11:41:15.707Z,98.11
2023-01-18T11:44:06.724Z,98.44
2023-01-18T11:46:42.602Z,97.82
2023-01-18T11:49:53.513Z,97.49
2023-01-18T11:52:46.805Z,96.75
2023-01-18T11:55:36.290Z,94.62
2023-01-18T11:58:05.180Z,94.19
2023-01-18T12:00:46.799Z,94.43
2023-01-18T12:03:28.398Z,94.65
2023-01-18T12:06:03.819Z,91.51
2023-01-18T12:08:47.994Z,89.33
2023-01-18T12:11:24.163Z,89.68
2023-01-18T12:14:03.473Z,88.29
2023-01-18T12:16:53.970Z,87.93
2023-01-18T12:19:42.481Z,87.74
2023-01-18T12:22:38.662Z,87.95
2023-01-18T12:25:21.990Z,85.79
2023-01-18T12:28:09.702Z,86.41
2023-01-18T12:30:44.242Z,86.14
2023-01-18T12:33:43.523Z,86.36
2023-01-18T12:36:18.843Z,86.26
2023-01-18T12:38:56.037Z,86.86
2023-01-18T12:42:01.290Z,85.86
2023-01-18T12:44:55.969Z,86.00
2023-01-18T12:47:36.125Z,86.08
2023-01-18T12:50:12.847Z,85.92
2023-01-18T12:52:47.719Z,86.43
2023-01-18T12:55:20.989Z,86.62
2023-01-18T12:57:50.408Z,86.95
2023-01-18T13:00:23.052Z,87.10
2023-01-18T13:02:52.838Z,87.38
2023-01-18T13:05:35.512Z,86.47
2023-01-18T13:08:17.009Z,86.31
2023-01-18T13:10:44.671Z,86.43
2023-01-18T13:13:17.688Z,86.85
2023-01-18T13:16:05.752Z,87.31
2023-01-18T13:18:42.603Z,87.03
2023-01-18T13:21:26.669Z,86.76
2023-01-18T13:23:59.988Z,85.91
2023-01-18T13:26:34.586Z,86.07
2023-01-18T13:29:10.261Z,86.04
2023-01-18T13:31:40.436Z,84.84
2023-01-18T13:34:24.389Z,85.90
2023-01-18T13:36:51.011Z,86.12
2023-01-18T13:39:19.541Z,86.65
2023-01-18T13:42:04.323Z,87.21
2023-01-18T13:44:40.288Z,87.14
2023-01-18T13:47:39.482Z,87.38
2023-01-18T13:50:40.014Z,87.37
2023-01-18T13:53:18.413Z,87.13
2023-01-18T13:56:00.074Z,86.82
2023-01-18T13:58:32.409Z,86.18
2023-01-18T14:01:03.584Z,86.15
2023-01-18T14:03:38.709Z,85.50
2023-01-18T14:06:09.113Z,85.35
2023-01-18T14:08:39.791Z,85.51
2023-01-18T14:11:10.320Z,85.99
2023-01-18T14:13:45.788Z,85.35
2023-01-18T14:16:22.837Z,85.16
2023-01-18T14:18:53.706Z,84.32
2023-01-18T14:21:54.128Z,84.45
2023-01-18T14:24:40.559Z,84.83
2023-01-18T14:27:14.398Z,85.20
2023-01-18T14:29:49.726Z,85.60
2023-01-18T14:32:23.198Z,85.95
2023-01-18T14:35:25.961Z,86.40
2023-01-18T14:38:16.738Z,86.74
2023-01-18T14:40:45.960Z,86.99
2023-01-18T14:43:24.888Z,86.97
2023-01-18T14:45:56.297Z,86.95
2023-01-18T14:48:24.496Z,87.06
2023-01-18T14:50:53.993Z,87.01
2023-01-18T14:53:30.817Z,87.30
2023-01-18T14:56:06.660Z,87.34
2023-01-18T14:58:40.318Z,87.37
2023-01-18T15:01:09.066Z,87.28
2023-01-18T15:03:36.451Z,87.87
2023-01-18T15:06:44.915Z,87.85
2023-01-18T15:09:12.834Z,88.34
2023-01-18T15:11:42.035Z,88.37
2023-01-18T15:14:15.730Z,88.41
2023-01-18T15:16:42.583Z,88.57
2023-01-18T15:19:16.860Z,88.43
2023-01-18T15:21:43.993Z,88.58
2023-01-18T15:24:16.188Z,89.08
2023-01-18T15:26:52.217Z,89.44
2023-01-18T15:29:23.908Z,89.38
2023-01-18T15:32:03.655Z,89.20
2023-01-18T15:34:33.557Z,89.62
2023-01-18T15:37:01.931Z,89.73
2023-01-18T15:39:28.866Z,90.03
2023-01-18T15:41:56.913Z,90.18
2023-01-18T15:44:35.702Z,90.31
2023-01-18T15:47:13.643Z,90.51
2023-01-18T15:49:44.405Z,90.44
2023-01-18T15:52:10.960Z,90.87
2023-01-18T15:54:37.813Z,91.28
2023-01-18T15:57:18.840Z,91.32
2023-01-18T15:59:47.754Z,91.66
2023-01-18T16:02:20.135Z,91.87
2023-01-18T16:04:46.836Z,91.87
2023-01-18T16:07:35.929Z,92.31
2023-01-18T16:10:27.752Z,92.78
2023-01-18T16:12:56.506Z,92.67
2023-01-18T16:15:28.188Z,92.64
2023-01-18T16:18:02.733Z,93.38
2023-01-18T16:20:32.301Z,93.40
2023-01-18T16:23:06.705Z,93.47
2023-01-18T16:25:33.288Z,93.35
2023-01-18T16:28:02.542Z,93.46
2023-01-18T16:30:34.463Z,93.43
2023-01-18T16:33:09.370Z,93.89
2023-01-18T16:35:39.706Z,94.13
2023-01-18T16:38:13.507Z,94.36
2023-01-18T16:40:44.070Z,94.39
2023-01-18T16:43:27.391Z,94.18
2023-01-18T16:45:56.534Z,94.65
2023-01-18T16:48:28.296Z,94.66
2023-01-18T16:51:01.568Z,94.87
2023-01-18T16:53:29.239Z,94.35
2023-01-18T16:55:56.738Z,94.83
2023-01-18T16:58:24.134Z,94.86
2023-01-18T17:01:01.515Z,95.37
2023-01-18T17:03:28.140Z,95.46
2023-01-18T17:05:55.476Z,95.47
2023-01-18T17:08:21.980Z,95.88
2023-01-18T17:10:50.704Z,96.05
2023-01-18T17:13:17.794Z,96.12
2023-01-18T17:15:45.625Z,96.08
2023-01-18T17:18:18.297Z,96.21
2023-01-18T17:20:44.884Z,96.33
2023-01-18T17:23:11.519Z,96.76
2023-01-18T17:25:38.766Z,96.68
2023-01-18T17:28:05.563Z,96.97
2023-01-18T17:30:33.032Z,97.01
2023-01-18T17:33:00.635Z,97.08
2023-01-18T17:35:31.932Z,97.05
2023-01-18T17:38:05.712Z,97.07
2023-01-18T17:40:42.548Z,97.62
2023-01-18T17:43:28.500Z,97.77
2023-01-18T17:46:02.543Z,97.49
2023-01-18T17:48:29.486Z,97.87
2023-01-18T17:50:56.060Z,97.77
2023-01-18T17:53:22.843Z,97.57
2023-01-18T17:55:49.874Z,97.84
2023-01-18T17:58:16.340Z,98.13
2023-01-18T18:00:42.902Z,98.25
2023-01-18T18:03:09.882Z,97.98
2023-01-18T18:05:36.703Z,98.23
2023-01-18T18:08:03.184Z,98.26
2023-01-18T18:10:31.012Z,98.22
2023-01-18T18:12:57.881Z,98.44
2023-01-18T18:15:25.029Z,98.66
2023-01-18T18:17:51.640Z,98.31
2023-01-18T18:20:18.278Z,98.83
2023-01-18T18:22:45.010Z,99.14
2023-01-18T18:25:11.577Z,99.02
2023-01-18T18:27:45.361Z,99.19
2023-01-18T18:30:13.016Z,98.91
2023-01-18T18:32:39.650Z,99.00
2023-01-18T18:35:23.278Z,99.23
2023-01-18T18:37:50.953Z,99.37
2023-01-18T18:40:17.965Z,99.54
2023-01-18T18:42:49.927Z,99.48
2023-01-18T18:45:27.121Z,99.57
2023-01-18T18:47:53.831Z,99.71
2023-01-18T18:50:20.404Z,99.59
2023-01-18T18:52:46.896Z,99.66
2023-01-18T18:55:13.657Z,99.83
2023-01-18T18:57:40.238Z,99.86
2023-01-18T19:00:07.816Z,100.00
2023-01-18T19:02:35.635Z,100.00
2023-01-18T19:05:02.387Z,100.00
2023-01-18T19:07:29.255Z,100.00
2023-01-18T19:09:55.978Z,100.00
2023-01-18T19:12:22.604Z,100.00
2023-01-18T19:14:49.165Z,100.00
2023-01-18T19:17:25.172Z,100.00
2023-01-18T19:19:55.983Z,100.00
2023-01-18T19:22:22.490Z,100.00
2023-01-18T19:24:49.333Z,100.00
2023-01-18T19:27:16.588Z,100.00
2023-01-18T19:29:43.205Z,100.00
2023-01-18T19:32:09.765Z,100.00
2023-01-18T19:34:38.652Z,100.00
2023-01-18T19:37:05.661Z,100.00
2023-01-18T19:39:35.475Z,100.00
2023-01-18T19:42:02.582Z,100.00
2023-01-18T19:44:29.289Z,100.00
2023-01-18T19:46:56.871Z,100.00
2023-01-18T19:49:26.221Z,100.00
2023-01-18T19:51:54.302Z,100.00
2023-01-18T19:54:21.012Z,100.00
2023-01-18T19:56:47.448Z,100.00
2023-01-18T19:59:14.993Z,100.00
2023-01-18T20:01:41.949Z,100.00
2023-01-18T20:04:08.798Z,100.00
2023-01-18T20:06:38.271Z,100.00
2023-01-18T20:09:17.648Z,100.00
2023-01-18T20:11:45.706Z,100.00
2023-01-18T20:14:12.479Z,100.00
2023-01-18T20:16:39.110Z,100.00
2023-01-18T20:19:05.744Z,100.00
2023-01-18T20:21:32.195Z,100.00
2023-01-18T20:23:58.975Z,100.00
2023-01-18T20:26:35.861Z,100.00
2023-01-18T20:29:06.813Z,100.00
2023-01-18T20:31:36.085Z,100.00
2023-01-18T20:34:03.548Z,100.00
2023-01-18T20:36:30.523Z,100.00
2023-01-18T20:38:57.385Z,100.00
2023-01-18T20:41:24.013Z,100.00
2023-01-18T20:43:50.586Z,100.00
2023-01-18T20:46:17.211Z,100.00
2023-01-18T20:48:43.821Z,100.00
2023-01-18T20:51:10.509Z,99.82
2023-01-18T20:53:39.982Z,99.83
2023-01-18T20:56:27.924Z,99.61
2023-01-18T20:58:55.159Z,99.24
2023-01-18T21:01:21.751Z,99.55
2023-01-18T21:03:55.210Z,99.56
2023-01-18T21:06:21.711Z,99.42
2023-01-18T21:08:52.527Z,99.41
2023-01-18T21:14:49.235Z,99.64
2023-01-18T21:17:15.727Z,99.58
2023-01-18T21:19:45.926Z,99.33
2023-01-18T21:22:13.205Z,99.59
2023-01-18T21:24:39.845Z,99.68
2023-01-18T21:27:08.038Z,99.28
2023-01-18T21:29:34.508Z,99.63
2023-01-18T21:32:01.454Z,99.79
2023-01-18T21:34:28.014Z,99.66
2023-01-18T21:36:54.514Z,99.54
2023-01-18T21:39:25.193Z,99.48
2023-01-18T21:42:11.157Z,99.75
2023-01-18T21:47:33.080Z,99.49
2023-01-18T21:50:18.899Z,99.32
2023-01-18T21:53:04.149Z,99.80
2023-01-18T21:55:30.710Z,99.25
2023-01-18T21:58:15.564Z,99.30
2023-01-18T22:00:42.444Z,99.49
2023-01-18T22:03:09.846Z,99.70
2023-01-18T22:05:36.434Z,99.47
2023-01-18T22:08:03.174Z,99.21
2023-01-18T22:10:29.872Z,99.11
2023-01-18T22:12:56.415Z,99.10
2023-01-18T22:15:23.173Z,99.22
2023-01-18T22:17:49.784Z,98.69
2023-01-18T22:20:16.668Z,98.92
2023-01-18T22:22:43.200Z,98.43
2023-01-18T22:25:09.981Z,98.35
2023-01-18T22:27:36.491Z,98.31
2023-01-18T22:30:03.953Z,98.43
2023-01-18T22:32:30.483Z,97.72
2023-01-18T22:34:57.275Z,98.38
2023-01-18T22:37:25.754Z,97.87
2023-01-18T22:39:52.353Z,97.98
2023-01-18T22:42:18.982Z,97.68
2023-01-18T22:44:46.544Z,97.28
2023-01-18T22:47:13.078Z,97.30
2023-01-18T22:49:39.645Z,96.97
2023-01-18T22:52:06.200Z,97.01
2023-01-18T22:54:32.716Z,96.71
2023-01-18T22:56:59.247Z,96.77
2023-01-18T22:59:25.831Z,96.67
2023-01-18T23:01:52.411Z,96.93
2023-01-18T23:04:18.937Z,96.60
2023-01-18T23:06:46.751Z,96.82
2023-01-18T23:09:17.656Z,97.01
2023-01-18T23:11:45.458Z,97.23
2023-01-18T23:14:30.471Z,97.08
2023-01-18T23:17:15.806Z,97.06
2023-01-18T23:19:42.341Z,97.04
2023-01-18T23:22:08.925Z,96.56
2023-01-18T23:24:36.756Z,97.03
2023-01-18T23:27:06.257Z,97.06
2023-01-18T23:29:33.591Z,96.87
2023-01-18T23:32:00.181Z,97.00
2023-01-18T23:34:26.755Z,97.18
2023-01-18T23:36:53.738Z,97.26
2023-01-18T23:39:39.361Z,97.36
2023-01-18T23:42:24.450Z,97.04
2023-01-18T23:45:09.759Z,97.53
2023-01-18T23:47:55.231Z,97.51
2023-01-18T23:50:40.723Z,97.50
2023-01-18T23:53:30.711Z,97.46
2023-01-18T23:55:57.874Z,97.10
2023-01-18T23:58:24.910Z,97.88
